x

9410840 - Santa Monica Pier (icac1) Weather Station

11:30 - Fri 28th Apr 2017 All times are PDT. -7 hours from GMT.

  • Wind
    13mph, 28mph gusts
  • Sea Temp 52°f
  • Air Temp 73°f
  • Sea Pressure 1010.4mb
  • 9410840 - Santa Monica Pier
  • 9410840 - Santa Monica Pier

More Historic Weather Station data

Upgrade to MSW Pro to gain access to the past 30 days of data for over 8000 Wavebouys and Weather Stations around the globe.

Join Pro

Comparision Forecast

View Surf forecast
   
ven. 04/28 11:30 13 28 mph 1010.4mb 52f 73f
11:24 17 24 mph 1010.4mb 52f 73f
11:18 18 29 mph - - -
11:12 21 29 mph 1010.3mb 52f 73f
11:06 20 25 mph 1010.2mb 52f 73f
11:00 18 29 mph 1010.1mb 52f 73f
10:54 17 28 mph 1010mb 52f 72f
10:48 25 38 mph 1009.9mb 52f 73f
10:42 18 31 mph 1009.9mb 52f -
10:36 21 31 mph 1009.8mb 52f -
10:30 21 31 mph 1009.8mb 52f 73f
10:24 25 33 mph 1009.6mb 53f 73f
10:18 22 32 mph 1009.5mb 53f 73f
10:12 23 33 mph 1009.3mb 53f 73f
10:06 24 36 mph 1009.3mb 53f 73f
10:00 26 36 mph 1009.1mb 53f 73f
9:54 25 39 mph 1009mb 53f 73f
9:48 24 34 mph 1008.8mb 53f 73f
9:42 26 38 mph 1008.8mb 53f 73f
9:36 25 38 mph 1008.7mb 53f 73f
9:30 31 41 mph 1008.6mb 53f 73f
9:24 30 44 mph 1008.5mb 53f 73f
9:18 28 43 mph 1008.2mb 53f 73f
9:12 33 43 mph 1008.3mb 53f 74f
9:06 36 43 mph 1008.3mb 53f 74f
9:00 29 38 mph 1008.4mb 53f 74f
8:54 23 36 mph 1008.5mb 53f 74f
8:48 22 31 mph - - -
8:42 16 33 mph 1008.4mb 53f 74f
8:36 22 32 mph 1008.2mb 53f 74f
8:30 21 31 mph 1008.2mb 54f 74f
8:24 23 38 mph 1008.2mb 54f 74f
8:18 20 26 mph 1008.2mb 54f 74f
8:12 18 31 mph 1008.4mb 54f 74f
8:06 24 30 mph 1008.3mb 54f 74f
8:00 23 33 mph 1008.3mb 54f 75f
7:54 24 33 mph 1008.4mb 54f 75f
7:48 28 38 mph - - -
7:42 18 28 mph 1008.3mb 54f 75f
7:36 15 31 mph 1008.3mb 54f -
7:30 20 34 mph 1008.2mb 54f -
7:24 22 30 mph 1008.2mb 54f -
7:18 17 30 mph - - -
7:12 15 23 mph 1007.8mb 54f -
7:06 21 28 mph 1007.6mb 54f -
7:00 22 31 mph 1007.5mb 54f -
6:54 29 37 mph 1007.3mb 54f -
6:48 26 36 mph - - -
6:42 22 32 mph 1007.2mb 54f -
6:36 24 37 mph 1007.2mb 54f -
6:30 29 39 mph 1007.1mb 54f -
6:24 22 33 mph 1007.1mb 54f -
6:18 21 31 mph - - -
6:12 18 26 mph 1007.1mb 54f -
6:06 21 30 mph 1007.1mb 54f -
6:00 18 23 mph 1007.4mb 54f -
5:48 5 7 mph - - -
5:42 2 6 mph 1007.6mb 54f 62f
5:36 5 8 mph 1007.7mb 54f 60f
5:30 9 11 mph 1007.7mb 54f -
5:24 2 9 mph 1007.7mb 54f 61f
5:18 8 10 mph - - -
5:12 6 10 mph 1007.9mb 54f 60f
5:06 1 10 mph 1007.8mb 54f 61f
5:00 8 10 mph 1007.8mb 54f 59f
4:54 8 11 mph 1007.7mb 55f 58f
4:48 6 8 mph 1007.6mb - -
4:42 7 13 mph 1007.7mb 55f 58f
4:36 9 15 mph 1007.9mb 54f 58f
4:30 10 13 mph 1007.8mb 55f 58f
4:24 10 13 mph 1007.9mb 55f 58f
4:12 11 14 mph 1007.8mb 55f 58f
4:06 10 15 mph 1007.9mb 55f 59f
4:00 11 14 mph 1008.1mb 55f -
3:54 11 15 mph 1008.2mb 55f -
3:48 9 13 mph 1008.1mb - -
3:42 9 13 mph 1008.2mb 55f -
3:36 15 18 mph 1008.2mb 55f -
3:30 13 15 mph 1008.2mb 55f -
3:24 11 15 mph 1008.3mb 55f -
3:18 9 17 mph - - -
3:12 18 23 mph 1008.4mb 55f -
3:06 11 14 mph 1008.6mb 55f -
3:00 11 16 mph 1008.7mb 55f -
2:54 13 26 mph 1008.8mb 55f -
2:48 20 24 mph - - -
2:42 10 20 mph 1008.6mb 55f -
2:36 14 18 mph 1008.6mb 54f -
2:30 15 21 mph 1008.8mb 54f -
2:24 22 26 mph 1008.4mb 54f -
2:18 25 28 mph 1008.4mb 54f -
2:12 23 24 mph 1008.7mb 54f -
2:06 20 24 mph 1008.8mb 54f -
2:00 21 22 mph 1008.9mb 54f -
1:54 21 22 mph 1009.1mb 54f -
1:48 21 24 mph - - -
1:42 22 24 mph 1009mb 54f -
1:36 13 22 mph 1009.2mb 54f -
1:30 23 29 mph 1008.9mb 54f -
1:24 17 22 mph 1009mb 54f -
1:18 20 23 mph 1009.2mb 54f -
1:12 18 28 mph 1009.1mb 54f -
1:06 22 31 mph 1009mb 54f 77f
1:00 20 26 mph 1009.1mb 54f 78f
12:54 23 33 mph 1009.1mb 54f 77f
12:48 24 32 mph 1009mb 54f 77f
12:42 16 31 mph 1009mb 54f 78f
12:36 20 36 mph 1009.1mb 54f 77f
12:30 26 40 mph 1009mb 54f 77f
12:24 25 38 mph 1009mb 54f 77f
12:18 25 38 mph 1009mb 54f 76f
12:12 26 34 mph 1009mb 54f 77f
12:06 21 28 mph 1009.1mb 54f 77f
12:00 23 37 mph 1009.1mb 54f 76f
11:54 25 37 mph 1009.1mb 54f 76f
11:48 22 37 mph 1009.1mb 54f 77f
11:42 25 32 mph 1009.2mb 54f 76f
11:36 23 33 mph 1009.3mb 54f 76f
11:30 18 30 mph 1009.4mb 54f 76f
11:24 24 33 mph 1009.5mb 54f 75f
11:18 22 32 mph 1009.5mb 54f 76f
11:12 29 39 mph 1009.2mb 53f 75f
11:06 26 37 mph 1009.2mb 53f 75f
11:00 23 32 mph 1009.3mb 53f 75f
10:54 20 25 mph 1009.3mb 53f 75f
10:48 20 30 mph - - -
10:42 17 33 mph 1009.2mb 53f 74f
10:36 25 34 mph 1008.9mb 53f 74f
10:30 20 30 mph 1009mb 53f 74f
10:24 18 34 mph 1008.9mb 53f 74f
10:18 23 37 mph 1008.9mb 53f 74f
10:12 23 36 mph 1008.9mb 53f 74f
10:06 15 28 mph 1009.2mb 53f 74f
10:00 21 31 mph 1009.2mb 53f 73f
9:54 21 31 mph 1009.1mb 53f 73f
9:48 21 37 mph 1009mb 53f 73f
9:42 23 32 mph 1009mb 53f 73f
9:36 18 28 mph 1009.1mb 53f 72f
9:30 23 37 mph 1009mb 53f 72f
9:24 28 41 mph 1008.9mb 53f 71f
9:18 32 48 mph 1008.7mb 53f 72f
9:12 29 43 mph 1008.6mb 53f 72f
9:06 31 40 mph 1008.5mb 53f 72f
9:00 25 41 mph 1008.4mb 53f 72f
8:54 28 41 mph 1008.4mb 53f 71f
8:48 31 43 mph 1008.5mb 53f 71f
8:42 28 36 mph 1008.5mb 53f 71f
8:36 22 33 mph 1008.6mb 53f 71f
8:30 20 38 mph 1008.6mb 53f 70f
8:24 24 43 mph 1008.5mb 53f 70f
8:18 14 28 mph 1008.4mb 53f 70f
8:06 23 37 mph 1008.2mb 53f 70f
8:00 28 43 mph 1008.2mb 53f 69f
7:54 36 46 mph 1007.9mb 53f 70f
7:48 31 44 mph 1008mb 53f 70f
7:42 22 33 mph 1008.2mb 53f 70f
7:36 20 32 mph 1008.2mb 53f 71f
7:30 18 36 mph 1008.1mb 53f 71f
7:24 26 41 mph 1007.7mb 53f 71f
7:18 34 41 mph 1007.3mb 53f 70f
7:12 29 40 mph 1007.3mb 53f 70f
7:06 30 38 mph 1007.3mb 53f 70f
7:00 25 31 mph 1007.3mb 53f 69f
6:54 23 37 mph 1007.4mb 53f 69f
6:48 24 40 mph 1007.4mb 53f 69f
6:42 20 32 mph 1007.4mb 53f 69f
6:36 22 32 mph 1007.3mb 53f 69f
6:30 24 37 mph 1007.2mb 53f 69f
6:24 31 40 mph 1007.1mb 53f 69f
6:18 28 38 mph 1007mb 53f 69f
6:12 30 39 mph 1006.8mb 53f 70f
6:06 31 46 mph 1006.7mb 53f 70f
6:00 24 29 mph 1006.9mb 53f 70f
5:54 28 37 mph 1006.9mb 53f 70f
5:48 25 31 mph 1006.9mb 53f 70f
5:42 28 34 mph 1006.9mb 53f 71f
5:36 24 36 mph 1006.9mb 53f 71f
5:30 22 29 mph 1006.7mb 53f 71f
5:24 14 26 mph 1007mb 53f 70f
5:18 20 29 mph 1006.9mb 53f 70f
5:12 22 30 mph 1007mb 53f 70f
5:06 22 33 mph 1006.9mb 53f 71f
5:00 29 38 mph 1006.7mb 53f 71f
4:30 8 23 mph 1006.9mb 54f 70f
4:24 20 33 mph 1006.6mb 54f 71f
4:18 18 30 mph 1006.4mb 54f 70f
4:12 21 43 mph 1006.3mb 54f 70f
4:06 28 39 mph 1006.4mb 54f 71f
4:00 31 43 mph 1006.4mb 54f 71f
3:54 25 37 mph 1006.5mb 55f 70f
3:48 24 34 mph 1006.4mb 55f 70f
3:42 23 36 mph 1006.5mb 55f 70f
3:36 30 45 mph 1006.5mb 55f 71f
3:30 29 41 mph 1006.3mb 55f 71f
3:24 29 43 mph 1006.1mb 56f 71f
3:18 32 46 mph 1006.2mb 56f 71f
3:12 32 46 mph 1006.1mb 56f 71f
3:06 31 41 mph 1006.3mb 56f 71f
3:00 24 31 mph 1006.3mb 56f 71f
2:54 20 33 mph 1006.4mb 56f 71f
2:48 21 32 mph 1006.5mb 57f 71f
2:42 20 31 mph 1006.6mb 57f 71f
2:36 26 38 mph 1006.5mb 57f 71f
2:30 26 40 mph 1006.4mb 57f 71f
2:24 24 43 mph 1006.4mb 57f 71f
2:18 24 36 mph 1006.5mb 57f 71f
2:12 22 33 mph 1006.7mb 57f 71f
2:06 24 31 mph 1006.8mb 57f 71f
2:00 24 37 mph 1006.9mb 57f 71f
1:54 17 28 mph 1006.8mb 57f 71f
1:48 26 40 mph 1006.9mb 57f 71f
1:42 16 31 mph 1007mb 58f 71f
1:36 21 33 mph 1006.9mb 58f 72f
1:30 21 32 mph 1006.9mb 58f 72f
1:24 17 33 mph 1007.1mb 58f 72f
1:18 17 29 mph 1007.2mb 58f 72f
1:12 24 34 mph 1007.1mb 58f 72f
1:06 20 36 mph 1007.3mb 58f 72f
1:00 22 40 mph 1007.2mb 58f 72f
12:54 28 40 mph 1007.2mb 58f 73f
12:48 20 30 mph 1007.4mb 58f 73f
12:42 20 26 mph 1007.5mb 58f 73f
12:36 21 32 mph 1007.5mb 58f 73f
12:30 22 28 mph 1007.5mb 59f 73f
12:24 20 29 mph 1007.6mb 58f 73f
12:18 23 34 mph - - -
12:12 24 36 mph 1007.6mb 58f 73f
12:06 22 36 mph 1007.5mb 58f 73f
12:00 24 38 mph 1007.5mb 58f 73f
jeu. 04/27 11:54 22 38 mph 1007.4mb 58f 73f
11:48 22 32 mph - - -
11:42 22 34 mph 1007.4mb 59f 73f
11:36 20 31 mph 1007.5mb 59f 74f
11:30 21 30 mph 1007.5mb 59f 74f
11:24 24 31 mph 1007.5mb 59f 74f
11:18 21 32 mph - - -
11:12 24 37 mph 1007.7mb 59f 74f
11:06 24 31 mph 1007.7mb 59f 74f
11:00 24 38 mph 1007.6mb 59f 74f
10:54 17 36 mph 1007.5mb 59f 74f
10:48 24 39 mph 1007.5mb 59f 74f
10:42 22 33 mph 1007.6mb 59f 74f
10:36 22 32 mph 1007.6mb 59f 74f
10:30 23 38 mph 1007.7mb 59f 74f
10:24 22 34 mph 1007.6mb 60f 74f
10:18 26 33 mph 1007.7mb 60f 75f
10:12 20 33 mph 1007.7mb 59f 74f
10:06 18 32 mph 1007.8mb 59f 74f
10:00 23 37 mph 1007.6mb 59f 75f
9:54 22 30 mph 1007.6mb 59f 75f
9:48 18 32 mph 1007.6mb 59f 75f
9:42 18 34 mph 1007.6mb 60f 74f
9:36 17 29 mph 1007.5mb 60f 75f
9:30 20 29 mph 1007.6mb 60f 75f
9:24 20 29 mph 1007.6mb 60f 75f
9:18 21 29 mph 1007.5mb 60f 75f
9:12 18 28 mph 1007.5mb 60f 75f
9:06 16 25 mph 1007.5mb 60f 75f
9:00 20 25 mph 1007.5mb 60f 75f
8:54 17 29 mph 1007.6mb 60f 75f
8:48 18 31 mph - - -
8:42 18 34 mph 1007.5mb 61f 75f
8:36 20 36 mph 1007.4mb 61f 75f
8:30 17 36 mph 1007.2mb 61f 75f
8:24 21 29 mph 1007.2mb 61f 76f
8:18 22 32 mph 1007.1mb 61f 76f
8:12 18 29 mph 1007mb 61f 76f
8:06 24 32 mph 1007mb 61f 76f
8:00 20 30 mph 1006.8mb 61f 76f
7:54 20 29 mph 1006.6mb 61f 76f
7:48 20 33 mph 1006.6mb 61f 77f
7:42 13 21 mph 1006.6mb 61f 77f
7:36 9 20 mph 1006.7mb 61f 76f
7:30 5 8 mph 1006.7mb 61f 74f
7:24 7 10 mph 1006.8mb 61f 73f
7:18 2 8 mph - - -
7:12 2 10 mph 1006.8mb 61f 66f
7:06 6 8 mph 1006.8mb 61f 67f
7:00 2 3 mph 1006.8mb 61f 63f
6:54 3 6 mph 1006.9mb 61f 63f
6:48 6 7 mph 1006.8mb - -
6:42 6
mph
1006.9mb 61f 62f
6:36 3 7 mph 1007.1mb 61f 63f
6:30 6 9 mph 1007.2mb 61f 63f
6:24 1 5 mph 1007mb 61f 64f
6:18 6 7 mph - - -
6:12 6 7 mph 1007.1mb 61f 62f
6:06 6 8 mph 1007.1mb 61f 62f
6:00 6 8 mph - 61f 62f
5:54 3 6 mph - 61f 63f
5:48 6 7 mph 1007.2mb 61f 62f
5:42 3 5 mph 1007.2mb 61f 63f
5:36 5 6 mph 1007.2mb 61f 62f
5:30 7 8 mph 1007.4mb 61f 62f
5:24 6 8 mph 1007.3mb 61f 62f
5:18 6 7 mph - - -
5:12 7 9 mph 1007.3mb 61f 62f
5:06 8 9 mph 1007.3mb 61f 62f
5:00 9 11 mph 1007.4mb 61f 62f
4:48 7 8 mph - - -
4:42 6 8 mph 1007.3mb 61f 62f
4:36 5 7 mph 1007.2mb 61f 61f
4:30 1 5 mph 1007.2mb 61f 63f
4:24 5 7 mph 1007.3mb 61f 61f
4:18 5 7 mph - - -
4:12 5 6 mph 1007.1mb 61f 62f
4:06 3 6 mph 1007.2mb 61f 61f
4:00 6 7 mph 1007.1mb 61f 60f
3:54 5 7 mph 1007.2mb 61f 60f
3:48 6 9 mph 1007.5mb - -
3:42 7 8 mph 1007.6mb 61f 60f
3:36 6 9 mph 1007.7mb 61f 60f
3:30 7 9 mph 1007.9mb 61f 60f
3:24 9 11 mph 1007.9mb 61f 60f
3:18 10
mph
- - -
3:12 8 10 mph 1008mb 61f 60f
3:06 9 10 mph 1007.9mb 61f 60f
3:00 9 13 mph 1008mb 61f 60f
2:54 10 14 mph 1008mb 60f 60f
2:48 10 13 mph - - -
2:42 11 13 mph 1008.1mb 61f 60f
2:36 10 13 mph 1008.2mb 61f 60f
2:30 10 13 mph 1008.2mb 61f 60f
2:24 10 13 mph 1008.2mb 61f 60f
2:18 9 11 mph 1008.3mb 60f 60f
2:12 9 10 mph 1008.3mb 60f 60f
2:06 9 10 mph 1008.4mb 61f 60f
2:00 10
mph
1008.5mb 60f 60f
1:54 8 10 mph 1008.6mb 60f 60f
1:48 8 9 mph 1008.8mb 60f 60f
1:42 7 8 mph 1008.8mb 60f 60f
1:36 5 11 mph 1008.9mb 60f 60f
1:30 8 9 mph 1008.9mb 61f 60f
1:24 6 8 mph 1008.9mb 60f 61f
1:18 6 9 mph 1008.9mb 60f 61f
1:12 7 8 mph 1009mb 60f 61f
1:06 6 9 mph 1008.9mb 60f 61f
1:00 9
mph
1009mb 60f 61f
12:54 7
mph
1009mb 60f 61f
12:48 3 6 mph 1009mb 60f 61f
12:42 7 8 mph 1009mb 60f 61f
12:36 6 7 mph 1009.2mb 60f 61f
12:30 3 7 mph 1009.3mb 60f 61f
12:24 8
mph
1009.5mb 60f 60f
12:18 6 7 mph 1009.5mb 60f 60f
12:12 6 7 mph 1009.6mb 60f 60f
12:06 5
mph
1009.7mb 60f 60f
12:00 2 6 mph 1009.9mb 60f 60f
11:54 5 7 mph 1009.8mb 60f 59f
11:48 6 7 mph 1009.8mb 60f 59f
11:42 7 10 mph 1010mb 60f 59f
11:36 10 11 mph 1009.7mb 60f 59f
11:30 6 11 mph 1010mb 60f 59f
11:24 10 11 mph 1009.5mb 60f 59f
11:18 6 8 mph 1010mb 60f 60f
11:12 6 7 mph 1010.1mb 60f 60f
11:06 5 6 mph 1010mb 60f 60f
11:00 6 7 mph 1010mb 60f 59f
10:54 3 6 mph 1009.9mb 60f 60f
10:48 6
mph
1009.9mb 60f 60f
10:42 3 6 mph 1009.8mb 60f 59f
10:36 5 7 mph 1010mb 60f 59f
10:30 6 7 mph 1009.9mb 60f 58f
10:24 5 6 mph 1009.9mb 60f 58f
10:18 5 7 mph 1010.1mb 60f 58f
10:12 6 7 mph 1010.2mb 60f 58f
10:06 6
mph
1010mb 60f 58f
10:00 3 6 mph 1010.1mb 60f 58f
9:36 8 9 mph 1009.9mb 59f 58f
9:30 7 8 mph 1010.1mb 59f 58f
9:24 7 10 mph 1010.1mb 59f 58f
9:18 9
mph
1010.1mb 59f 58f
9:12 7 8 mph 1009.9mb 59f 58f
9:06 8
mph
1010.1mb 59f 58f
9:00 8 9 mph 1010mb 59f 58f
8:54 7 8 mph 1010.2mb 59f 58f
8:48 8
mph
- - -
8:42 7 8 mph 1010.2mb 59f 58f
8:36 6 7 mph 1010.1mb 59f 58f
8:30 3 5 mph 1010.2mb 59f 59f
8:24 2 5 mph 1010.1mb 59f 59f
8:18 3 5 mph 1009.9mb 59f 59f
8:12 5
mph
1009.9mb 59f 59f
8:06 3
mph
1010mb 58f 59f
8:00 2 3 mph 1009.9mb 58f 59f
7:54 3 5 mph 1010mb 58f 59f
7:48 5 6 mph - - -
7:42 5 6 mph 1010mb 58f 58f
7:36 5 6 mph 1010mb 58f 58f
7:30 6
mph
1010.1mb 58f 58f
7:24 6
mph
1010.1mb 58f 58f
7:18 5
mph
1010mb 58f 58f
7:12 5 6 mph 1010mb 58f 58f
7:06 6 7 mph 1010mb 58f 58f
7:00 5 6 mph 1010.1mb 58f 58f
6:54 3
mph
1010.1mb 58f 58f
6:48  -  2 mph - - -
6:42 1 2 mph 1009.9mb 58f 58f
6:36  -  2 mph 1009.8mb 58f 57f
6:30 1 2 mph 1009.7mb 58f 58f
6:24 2
mph
1009.8mb 58f 57f
6:18  -  1 mph 1009.7mb 58f 58f
6:12  -  1 mph 1009.7mb 58f 57f
6:06  -  1 mph 1009.7mb 58f 58f
6:00  -  2 mph 1009.7mb 58f 57f
5:54 2 3 mph 1009.8mb 58f 58f
5:48 2
mph
- - -
5:42  -  2 mph 1009.5mb 58f 58f
5:36 2 3 mph 1009.4mb 58f 58f
5:30 2 3 mph 1009.4mb 58f 58f
5:24 3
mph
1009.4mb 57f 58f
5:18 3
mph
1009.4mb 57f 58f
5:12 2 5 mph 1009.3mb 57f 58f
5:06 3 5 mph 1009.3mb 57f 58f
5:00 3
mph
1009.4mb 57f 57f
4:42 2 3 mph 1009.6mb 57f 58f
4:36 3
mph
1009.5mb 57f 58f
4:30 3 5 mph 1009.7mb 57f 58f
4:24 1 2 mph 1009.5mb 57f 58f
4:18 1 3 mph 1009.6mb 57f 58f
4:12 1 3 mph 1009.7mb 57f 58f
4:06 2 5 mph 1009.5mb 57f 58f
4:00 5 9 mph 1009.5mb 57f 58f
3:54 8 9 mph 1009.4mb 57f 58f
3:48 7 8 mph - - -
3:42 6
mph
1009.6mb 57f 58f
3:36 6 8 mph 1009.6mb 57f 58f
3:30 6 9 mph 1009.6mb 57f 58f
3:24 8 11 mph 1009.5mb 57f 58f
3:18 7 10 mph 1009.4mb 57f 58f
3:12 9 11 mph 1009.5mb 57f 58f
3:06 7 9 mph 1009.7mb 57f 58f
3:00 7 10 mph 1009.8mb 56f 58f
2:54 7 8 mph 1009.9mb 57f 59f
2:48 7 13 mph 1009.8mb 57f 59f
2:42 10 14 mph 1009.6mb 57f 59f
2:36 5 7 mph 1009.5mb 57f 59f
2:30 3 6 mph 1009.6mb 57f 59f
2:24 5 7 mph 1009.7mb 58f 59f
2:18 5 6 mph 1009.8mb 58f 59f
2:12 3 5 mph 1009.9mb 57f 59f
2:06 3 5 mph 1009.9mb 57f 59f
2:00 1 3 mph 1009.9mb 57f 59f
1:54 3 5 mph 1009.8mb 57f 59f
1:48 5 6 mph 1009.8mb 58f 59f
1:42 5 6 mph 1010mb 58f 59f
1:36 2
mph
1010.1mb 58f 59f
1:30 2 3 mph 1010mb 58f 59f
1:24 2 5 mph 1010mb 58f 60f
1:18 5 6 mph 1009.8mb 58f 60f
1:12 5 6 mph 1010mb 58f 60f
1:06 7 8 mph 1010.1mb 58f 60f
1:00 6 9 mph 1010mb 58f 60f
12:54 8 10 mph 1010mb 58f 60f
12:48 7 10 mph 1010.2mb 58f 60f
12:42 9 10 mph 1010.4mb 58f 60f
12:36 8 9 mph 1010.4mb 59f 60f
12:30 6 8 mph 1010.6mb 58f 61f
12:24 6 8 mph 1010.7mb 59f 61f
12:18 6 7 mph 1010.7mb 59f 61f
12:12 6 9 mph 1010.7mb 59f 61f
12:06 7 8 mph 1010.6mb 58f 61f
12:00 6 7 mph 1010.7mb 58f 61f
mer. 04/26 11:54 6 8 mph 1010.4mb 58f 60f
11:48 7 8 mph - - -
11:42 6 8 mph 1010.4mb 59f 60f
11:36 7 8 mph 1010.6mb 59f 60f
11:30 6 8 mph 1010.7mb 59f 60f
11:24 7 8 mph 1010.7mb 59f 60f
11:18 6 9 mph - - -
11:12 9 13 mph 1010.7mb 59f 60f
11:06 9 11 mph 1010.6mb 59f 60f
11:00 8 9 mph 1010.6mb 59f 60f
10:54 7 8 mph 1010.7mb 59f 60f
10:48 6 8 mph 1010.4mb 59f 60f
10:42 6 9 mph 1010.5mb 59f 60f
10:36 6 8 mph 1010.4mb 59f 60f
10:30 5 8 mph 1010.4mb 60f 60f
10:24 7 8 mph 1010.4mb 60f 60f
10:18 5 7 mph 1010.3mb 60f 60f
10:12 6 8 mph 1010.2mb 60f 60f
10:06 6
mph
1010.2mb 60f 60f
10:00 6 8 mph 1010.1mb 60f 60f
9:54 7
mph
1010.2mb 60f 60f
9:48 8 10 mph 1010.4mb 60f 60f
9:42 8 9 mph 1010.3mb 60f 60f
9:36 7 8 mph 1010.2mb 60f 60f
9:30 7 10 mph 1010.2mb 60f 60f
9:24 7 9 mph 1010.2mb 60f 60f
9:18 7 9 mph 1010.2mb 60f 60f
9:12 8 10 mph 1010.1mb 61f 60f
9:06 6 8 mph 1010.1mb 61f 59f
9:00 8 10 mph 1010mb 61f 59f
8:54 9 11 mph 1010.1mb 61f 59f
8:48 9 10 mph - - -
8:42 8 11 mph 1010.1mb 61f 59f
8:36 10 11 mph 1010mb 62f 59f
8:30 9 11 mph 1010.1mb 62f 59f
8:24 10
mph
1010.1mb 62f 59f
8:18 8 9 mph 1010mb 62f 59f
8:12 9 10 mph 1009.9mb 62f 59f
8:06 8 11 mph 1009.9mb 62f 59f
8:00 9 11 mph 1009.9mb 62f 59f
7:54 10 11 mph 1009.8mb 62f 59f
7:48 10 11 mph 1009.7mb 62f 59f
7:42 8 10 mph 1009.6mb 62f 59f
7:36 9 11 mph 1009.8mb 62f 60f
7:30 11 13 mph 1009.8mb 62f 60f
7:24 9
mph
1009.8mb 62f 60f
7:18 8 9 mph 1010mb 62f 61f
7:12 7
mph
1010mb 62f 61f
7:06 5 6 mph 1010mb 62f 61f
7:00 3
mph
1010.1mb 62f 62f
6:54  -  1 mph 1010.1mb 62f 64f
6:48 1 3 mph - - -
6:42 3 6 mph 1010.1mb 62f 61f
6:36 5 7 mph 1010.1mb 62f 61f
6:30 3 6 mph 1010mb 62f 62f
6:24 6 7 mph 1010.1mb 62f 62f
6:18 5 7 mph - - -
6:12 6 7 mph 1010.1mb 62f 62f
6:06 6
mph
1010mb 62f 62f
6:00 6 7 mph 1009.8mb 62f 61f
5:48 5 6 mph - - -
5:42 5 6 mph 1010.1mb 62f 60f
5:36 6 10 mph 1010.1mb 62f 60f
5:30 9 13 mph 1010mb 62f 60f
5:24 11 14 mph 1010.1mb 62f 60f
5:18 10 15 mph - - -
5:12 11 16 mph 1010.2mb 62f 60f
5:06 15 16 mph 1010.1mb 62f 60f
5:00 15 17 mph 1010.1mb 62f 60f
4:48 14 15 mph - - -
4:42 15 17 mph 1010mb 62f 61f
4:36 14 15 mph 1010.1mb 62f 61f
4:30 8 10 mph 1010.1mb 62f 62f
4:24 10 13 mph 1009.9mb 61f 62f
4:18 6 8 mph - - -
4:12 6 7 mph 1010.2mb 61f 63f
4:06 2 3 mph 1010.1mb 61f 63f
4:00 3 5 mph 1010.3mb 61f 63f
3:54 3 6 mph 1010.3mb 61f 63f
3:48 5 7 mph - - -
3:42 3 8 mph 1010.3mb 61f 62f
3:36 6 7 mph 1010.5mb 61f 62f
3:30 5 7 mph 1010.7mb 61f 62f
3:24 6 9 mph 1010.7mb 61f 61f
3:18 7 8 mph - - -
3:12 7 8 mph 1010.9mb 61f 60f
3:06 6 8 mph 1011.2mb 61f 60f
3:00 8
mph
1011.2mb 61f 60f
2:54 7 8 mph 1011.4mb 61f 61f
2:48 7 10 mph - - -
2:36 6 7 mph 1011.6mb 61f 61f
2:30 6 9 mph 1011.8mb 61f 61f
2:24 8 9 mph 1011.7mb 61f 61f
2:18 9 11 mph - - -
2:12 9 10 mph 1011.6mb 61f 60f
2:06 9 10 mph 1011.7mb 61f 60f
2:00 8 10 mph 1011.7mb 60f 60f
1:54 6 9 mph 1011.8mb 60f 60f
1:48 7 10 mph 1011.8mb 60f 59f
1:36 8 13 mph 1011.9mb 60f 59f
1:30 9 10 mph 1012mb 60f 59f
1:24 9 10 mph 1011.9mb 59f 59f
1:18 10 11 mph - - -
1:12 9 10 mph 1012.1mb 59f 59f
1:06 8 9 mph 1012.1mb 59f 59f
1:00 7 8 mph 1012mb 58f 59f
12:54 5 6 mph 1012.1mb 58f 60f
12:48 5 6 mph 1012.2mb 58f 59f
12:42 3 6 mph 1012.3mb 58f 60f
12:36 7
mph
1012.4mb 58f 59f
12:30 6 7 mph 1012.6mb 58f 60f
12:24 6 7 mph 1012.6mb 57f 60f
12:18 6 7 mph - - -
12:12 5 7 mph 1012.8mb 57f 59f
12:06 7
mph
1012.8mb 57f 59f
12:00 6
mph
1013mb 57f 60f
11:54 5 6 mph 1013.1mb 58f 60f
11:48 5 6 mph 1013.1mb 58f 60f
11:42 5 7 mph 1013.2mb 57f 60f
11:36 7 8 mph 1013.2mb 57f 60f
11:30 6
mph
1013.2mb 57f 60f
11:24 6 8 mph 1013.3mb 57f 60f
11:18 7 9 mph 1013.3mb 57f 60f
11:12 9 10 mph 1013.4mb 57f 60f
11:06 9 10 mph 1013.5mb 57f 60f
11:00 9 11 mph 1013.4mb 57f 60f
10:54 10 13 mph 1013.5mb 56f 60f
10:48 10 11 mph 1013.5mb 56f 60f
10:42 9 11 mph 1013.3mb 56f 60f
10:36 10 11 mph 1013.4mb 56f 60f
10:30 9 10 mph 1013.3mb 56f 59f
10:24 8 10 mph 1013.3mb 56f 60f
10:18 9 10 mph 1013.3mb 56f 59f
10:12 8 9 mph 1013.3mb 55f 59f
10:06 10
mph
1013.2mb 55f 59f
10:00 9 10 mph 1013.1mb 55f 59f
9:54 9 10 mph 1013mb 55f 59f
9:48 10 11 mph 1013mb 55f 59f
9:42 9
mph
1012.9mb 55f 60f
9:36 7 8 mph 1013mb 55f 61f
9:30 5 6 mph 1013mb 55f 61f
9:24 5
mph
1013.2mb 55f 61f
9:18 3 5 mph 1013.3mb 55f 61f
9:12 2
mph
1013.3mb 55f 62f
9:06 1 3 mph 1013.3mb 55f 61f
9:00 2 3 mph 1013.4mb 55f 60f
8:54 3
mph
1013.3mb 55f 60f
8:48 3
mph
1013.3mb 55f 60f
8:42 5
mph
1013.3mb 55f 60f
8:36 3
mph
1013.1mb 55f 60f
8:30 5 6 mph 1013mb 55f 60f
8:24 5
mph
1013.1mb 55f 60f
8:18 5
mph
1012.9mb 55f 60f
8:06 3 5 mph 1012.9mb 55f 61f
8:00  -  2 mph 1012.8mb 55f 64f
7:54 2 5 mph 1012.8mb 55f 64f
7:48 2 3 mph 1012.7mb 55f 63f
7:42 2 3 mph 1012.6mb 55f 62f
7:36 2
mph
1012.8mb 55f 64f
7:30 1 5 mph 1012.8mb 55f 62f
7:24 5 6 mph 1012.5mb 55f 61f
7:18 6 7 mph 1012.4mb 55f 60f
7:12 7 8 mph 1012.4mb 55f 60f
7:06 8 10 mph 1012.2mb 55f 60f
7:00 7 8 mph 1012.3mb 55f 60f
6:54 6 8 mph 1012.2mb 55f 60f
6:48 6 8 mph 1012.4mb 55f 60f
6:42 8 9 mph 1012.3mb 55f 60f
6:36 3 9 mph 1012.3mb 55f 60f
6:30 8 10 mph 1012.2mb 55f 60f
6:24 8 10 mph 1012.3mb 55f 60f
6:18 6 10 mph 1012.2mb 55f 60f
6:12 6 8 mph 1012.2mb 55f 60f
6:06 5 6 mph 1012.3mb 55f 60f
6:00 5 7 mph 1012.3mb 55f 60f
5:48 6 9 mph 1012.1mb 55f 60f
5:42 7 8 mph 1012.1mb 55f 60f
5:36 6 8 mph 1012.1mb 55f 60f
5:30 7 9 mph 1012.1mb 55f 60f
5:24 7 9 mph 1012mb 55f 60f
5:18 8 9 mph 1011.9mb 55f 60f
5:12 8 9 mph 1012mb 55f 60f
5:06 7 8 mph 1011.9mb 55f 60f
5:00 7 8 mph 1011.9mb 55f 60f
4:54 7 9 mph 1011.9mb 55f 60f
4:48 7 10 mph 1011.8mb 55f 60f
4:42 6 8 mph 1011.9mb 55f 60f
4:36 6 7 mph 1011.9mb 55f 60f
4:30 6 8 mph 1011.9mb 55f 60f
4:24 2 3 mph 1012mb 55f 60f
4:18  -  2 mph 1012mb 56f 60f
4:12 2 5 mph 1012mb 55f 60f
4:06 1 2 mph 1012mb 55f 59f
4:00 3 5 mph 1012mb 55f 60f
3:54 3 9 mph 1011.9mb 55f 59f
3:48 8 9 mph 1011.8mb 55f 60f
3:36 8 10 mph 1011.7mb 55f 60f
3:30 10
mph
1011.6mb 56f 60f
3:24 10 11 mph 1011.6mb 56f 60f
3:18 8 11 mph 1011.6mb 56f 60f
3:12 10
mph
1011.6mb 56f 60f
3:06 10
mph
1011.6mb 56f 61f
3:00 9 10 mph 1011.6mb 56f 61f
2:54 8 9 mph 1011.6mb 56f 62f
2:48 9 10 mph 1011.9mb 56f 62f
2:42 6 9 mph 1012mb 56f 63f
2:36 6 8 mph 1012mb 56f 63f
2:30 7 9 mph 1011.9mb 56f 64f
2:24 8 9 mph 1011.9mb 56f 64f
2:18 9 14 mph 1012mb 57f 64f
2:12 8 10 mph 1012mb 57f 61f
2:06 2 5 mph 1012mb 57f 62f
2:00 2 7 mph 1012mb 57f 62f
1:54 7 8 mph 1012mb 57f 61f
1:48 2 5 mph 1012.1mb 57f 61f
1:42 1 7 mph 1012.1mb 57f 60f
1:36 2 11 mph 1012mb 57f 60f
1:30 13 16 mph 1011.9mb 57f 62f
1:24 14 16 mph 1011.9mb 57f 62f
1:18 15
mph
1012.2mb 57f 60f
1:12 14
mph
1012.4mb 57f 60f
1:06 16 17 mph 1012.5mb 57f 64f
1:00 5 9 mph 1012.4mb 57f 69f
12:54 7 10 mph 1012.2mb 57f 70f
12:48 7 10 mph 1012.3mb 57f 70f
12:42 8 16 mph 1012.3mb 58f 70f
12:36 15 18 mph 1012.1mb 58f 71f
12:30 14 17 mph 1011.9mb 58f 70f
12:24 13 15 mph 1012.1mb 58f 70f
12:18 8 14 mph 1012.4mb 58f 71f
12:12 9 14 mph 1012.4mb 58f 70f
12:06 13 20 mph 1012.2mb 58f 71f
12:00 8 18 mph 1012.3mb 58f 70f
mar. 04/25 11:54 14 22 mph 1012.1mb 58f 70f
11:48 18 26 mph 1011.9mb 58f 71f
11:42 15 29 mph 1012mb 58f 71f
11:36 25 34 mph 1012.1mb 58f 71f
11:30 22 34 mph 1011.9mb 58f 71f
11:24 21 31 mph 1012.1mb 58f 71f
11:18 18 26 mph 1012.2mb 59f 71f
11:12 16 28 mph 1012.3mb 58f 71f
11:06 20 31 mph 1012.2mb 59f 71f
11:00 24 31 mph 1012mb 59f 72f
10:54 21 32 mph 1012mb 59f 71f
10:48 22 29 mph 1012mb 59f 71f
10:42 23 37 mph 1012.1mb 59f -
10:36 20 30 mph 1012.1mb 59f -
10:30 20 30 mph 1012mb 58f 71f
10:24 26 37 mph 1011.8mb 59f 71f
10:18 29 38 mph 1011.8mb 59f 71f
10:12 28 36 mph 1012mb 59f 71f
10:06 30 37 mph 1012.1mb 59f 71f
10:00 25 34 mph 1012.2mb 60f 71f
9:54 18 29 mph 1012.2mb 60f 71f
9:48 22 30 mph 1012.2mb 60f 71f
9:42 18 31 mph 1012.3mb 60f 71f
9:36 24 33 mph 1012.1mb 60f 71f
9:30 18 26 mph 1012mb 60f 71f
9:24 16 29 mph 1012mb 59f 71f
9:18 22 31 mph 1011.9mb 59f 71f
9:12 23 29 mph 1011.8mb 59f 71f
9:06 20 25 mph 1011.9mb 60f 71f
9:00 18 24 mph 1011.9mb 60f 71f
8:54 20 23 mph 1011.9mb 60f 71f
8:48 16 24 mph 1011.7mb 60f 71f
8:42 14 26 mph 1011.7mb 60f 71f
8:36 18 26 mph 1011.6mb 60f 71f
8:30 17 22 mph 1011.5mb 60f 71f
8:24 16 29 mph 1011.5mb 60f 71f
8:18 15 25 mph 1011.6mb 60f 71f
8:12 15 23 mph 1011.6mb 60f 70f
8:06 10 15 mph 1011.6mb 60f 65f
8:00 9 13 mph 1011.6mb 60f 64f
7:54 8 11 mph 1011.6mb 60f 65f
7:48 6 14 mph 1011.6mb 60f 67f
7:42 10 13 mph 1011.6mb 60f 62f
7:36 7 8 mph 1011.6mb 60f 61f
7:30 6 7 mph 1011.5mb 60f 61f
7:24 5 6 mph 1011.6mb 60f 61f
7:18 3 5 mph - - -
7:12 2 5 mph 1011.5mb 60f 61f
7:06 2 5 mph 1011.5mb 60f 61f
7:00 2 5 mph 1011.4mb 60f 61f
6:54 2 6 mph 1011.2mb 60f 62f
6:48 3 7 mph - - -
6:42 6 9 mph 1011.2mb 60f 61f
6:36 8 11 mph 1011.1mb 60f 61f
6:30 6 8 mph 1011.1mb 60f 61f
6:24 6 7 mph 1011.3mb 60f 61f
6:18 7 9 mph - - -
6:12 6 11 mph 1011.3mb 59f 61f
6:06 10 13 mph 1011.2mb 59f 61f
6:00 10 14 mph 1011.2mb 59f 61f
5:54 14 15 mph 1011.1mb 60f 61f
5:48 9 13 mph - - -
5:42 9 15 mph 1011.2mb 59f 61f
5:36 11 14 mph 1011.2mb 59f 61f
5:30 11 16 mph 1011.2mb 59f 62f
5:24 14 16 mph 1011mb 59f 62f
5:18 14 16 mph 1011.1mb - -
5:12 16 20 mph 1011mb 59f 62f
5:06 13 15 mph 1011.1mb 59f 61f
5:00 14 17 mph 1011.3mb 59f 61f
4:48 14 17 mph 1011.4mb - -
4:42 16 18 mph 1011.4mb 59f 60f
4:36 15 18 mph 1011.4mb 58f 60f
4:30 17 20 mph 1011.3mb 58f 60f
4:24 17 21 mph 1011.4mb 58f 60f
4:18 18 21 mph 1011.3mb 58f 60f
4:12 17 21 mph 1011.3mb 59f 60f
4:06 14 16 mph 1011.6mb 58f 61f
4:00 15 17 mph 1011.6mb 58f 61f
3:54 14 17 mph 1011.7mb 59f 61f
3:48 16 20 mph 1011.8mb - -
3:42 15 17 mph 1011.8mb 58f 61f
3:36 15 17 mph 1011.8mb 58f 61f
3:30 16 18 mph 1011.9mb 58f 60f
3:24 16 20 mph 1011.9mb 58f 60f
3:18 17 21 mph 1012mb 58f 60f
3:12 18 21 mph 1012.1mb 58f 60f
3:06 18 22 mph 1012mb 58f 60f
3:00 17 21 mph 1012.1mb 58f 60f
2:48 16 21 mph - - -
2:42 18 21 mph 1012.4mb 58f 60f
2:36 18 20 mph 1012.3mb 58f 60f
2:30 17 20 mph 1012.5mb 58f 60f
2:24 17 20 mph 1012.5mb 58f 60f
2:18 17 20 mph 1012.6mb 58f 60f
2:12 15 16 mph 1012.7mb 58f 60f
2:06 10 13 mph 1012.8mb 58f 60f
2:00 7 13 mph 1012.9mb 58f 60f
1:54 10 15 mph 1012.9mb 58f 60f
1:48 14 17 mph 1012.7mb 58f 59f
1:42 15 17 mph 1012.8mb 57f 60f
1:36 13 15 mph 1012.8mb 57f 60f
1:30 14 16 mph 1012.9mb 58f 60f
1:24 15 16 mph 1013.1mb 58f 60f
1:18 11 14 mph 1013.3mb 58f 60f
1:12 14 16 mph 1013.4mb 58f 59f
1:06 16 17 mph 1013.3mb 58f 59f
1:00 16 17 mph 1013.4mb 58f 60f
12:54 14 16 mph 1013.3mb 58f 59f
12:48 14 15 mph 1013.4mb 58f 59f
12:42 14 17 mph 1013.6mb 58f 60f
12:36 13 15 mph 1013.5mb 58f 60f
12:30 10 14 mph 1013.5mb 58f 60f
12:24 11 14 mph 1013.6mb 58f 60f
12:18 11 13 mph 1013.6mb 58f 59f
12:12 8 11 mph 1013.8mb 58f 60f
12:06 9 11 mph 1013.9mb 58f 60f
12:00 10 13 mph 1013.7mb 58f 60f
11:54 9 11 mph 1013.7mb 58f 61f
11:48 7 10 mph 1013.7mb 58f 61f
11:42 7 8 mph 1013.7mb 58f 61f
11:36 6 8 mph 1013.8mb 58f 62f
11:30 8 11 mph 1013.6mb 58f 61f
11:24 8 10 mph 1013.6mb 58f 63f
11:18 5 14 mph 1013.6mb 58f 65f
11:12 7 9 mph 1013.5mb 58f 66f
11:06 3 9 mph 1013.4mb 58f 66f
11:00 6 18 mph 1013.4mb 58f 65f
10:54 11 16 mph 1013.3mb 58f 69f
10:48 10 14 mph 1013.3mb 58f 68f
10:42 11 16 mph 1013.2mb 58f 68f
10:36 15 23 mph 1013.3mb 58f 68f
10:30 16 21 mph 1013.2mb 58f 68f
10:24 13 18 mph 1013.3mb 58f 68f
10:18 14 28 mph 1013.1mb 58f 68f
10:12 18 26 mph 1012.9mb 58f 67f
10:06 17 24 mph 1012.8mb 58f 67f
10:00 15 24 mph 1012.8mb 58f 68f
9:54 11 21 mph 1012.8mb 58f 68f
9:48 15 28 mph 1012.9mb 59f 67f
9:42 21 29 mph 1012.7mb 58f 67f
9:36 18 31 mph 1012.5mb 58f 67f
9:30 24 36 mph 1012.1mb 58f 67f
9:24 25 34 mph 1011.9mb 58f 67f
9:18 25 32 mph 1011.9mb 58f 67f
9:12 20 25 mph 1011.9mb 58f 67f
9:06 18 30 mph 1012mb 58f 67f
9:00 5 17 mph 1011.9mb 58f 68f
8:54 14 31 mph 1011.7mb 58f 67f
8:48 21 31 mph 1011.5mb 58f 67f
8:42 18 29 mph 1011.5mb 59f 67f
8:36 18 26 mph 1011.5mb 59f 67f
8:30 16 31 mph 1011.5mb 59f 67f
8:24 25 37 mph 1011.3mb 59f 66f
8:18 24 30 mph 1011.1mb 59f 66f
8:12 14 21 mph 1011.4mb 59f 66f
8:06 17 26 mph 1011.5mb 59f 65f
8:00 15 21 mph 1011.7mb 59f 65f
7:54 14 21 mph 1011.7mb 59f 65f
7:48 14 20 mph 1011.8mb 59f 65f
7:42 14 20 mph 1011.9mb 59f 65f
7:36 15 26 mph 1011.8mb 59f 65f